Park Rapids, Minnesota
Current Conditions -  °F | °C
As of 1:53 AM on Thursday 29 Jan 2015 (Local Time) from KPKD Reporting Station
Overcast Overcast  
Wind Chill: 13°   Ceiling: 700
Heat Index: 27°   Visibility: 7mi
Dew Point: 24°   Wind: 22mph
Humidity: 89%   Direction: 320°NW
Pressure: 29.98"   Gusts: 28mph
Location:  46.92°N, 95.06°W
Report Text: KPKD 290753Z AUTO 32019G24KT 7SM OVC007 M03/M04 A2998 RMK AO2 PK WND 32026/0707 SLP171 I1001 T10281044
Loading
Personal Weather Stations






























Interactive Weather Map New forecast layout! Learn more

10-Day Weather Forecast

Advertisements
Track Severe Weather on mobile